TimePST,TemperatureF,Dew PointF,Humidity,Sea Level PressureIn,VisibilityMPH,Wind Direction,Wind SpeedMPH,Gust SpeedMPH,PrecipitationIn,Events,Conditions,WindDirDegrees,DateUTC
12:56 AM,39.9,35.1,83,30.02,10.0,ESE,8.1,-,N/A,,Overcast,120,2013-02-21 08:56:00
1:56 AM,39.9,35.1,83,30.03,10.0,SSE,12.7,-,N/A,,Mostly Cloudy,150,2013-02-21 09:56:00
2:56 AM,41.0,36.0,82,30.02,10.0,South,10.4,-,N/A,,Overcast,170,2013-02-21 10:56:00
3:56 AM,41.0,36.0,82,30.02,10.0,SSE,9.2,-,N/A,,Overcast,150,2013-02-21 11:56:00
4:56 AM,41.0,36.0,82,30.02,10.0,SE,9.2,-,N/A,,Overcast,130,2013-02-21 12:56:00
5:38 AM,41.0,35.6,81,30.01,10.0,SSE,5.8,-,0.00,Rain,Light Rain,150,2013-02-21 13:38:00
5:56 AM,41.0,36.0,82,30.03,10.0,SSE,8.1,-,0.00,Rain,Light Rain,150,2013-02-21 13:56:00
6:56 AM,39.9,36.0,86,30.03,8.0,SE,10.4,-,0.01,Rain,Light Rain,140,2013-02-21 14:56:00
7:56 AM,39.9,37.0,89,30.03,8.0,SE,10.4,-,0.01,Rain,Light Rain,140,2013-02-21 15:56:00
8:22 AM,39.2,37.4,93,30.01,8.0,SE,9.2,-,0.01,Rain,Light Rain,130,2013-02-21 16:22:00
8:56 AM,41.0,37.9,89,30.03,8.0,SSE,12.7,-,0.01,Rain,Light Rain,150,2013-02-21 16:56:00
9:56 AM,41.0,37.9,89,30.03,8.0,ESE,9.2,-,0.02,Rain,Light Rain,120,2013-02-21 17:56:00
10:56 AM,43.0,39.9,89,30.01,10.0,ESE,10.4,-,0.01,,Overcast,120,2013-02-21 18:56:00
11:56 AM,43.0,37.9,82,30.01,9.0,SSE,21.9,-,N/A,,Overcast,150,2013-02-21 19:56:00
12:18 PM,42.8,37.4,81,30.00,8.0,SE,19.6,27.6,0.00,Rain,Light Rain,140,2013-02-21 20:18:00
12:56 PM,44.1,37.9,79,30.01,8.0,SE,20.7,26.5,0.01,Rain,Light Rain,140,2013-02-21 20:56:00
1:11 PM,44.6,37.4,76,30.00,10.0,SSE,16.1,24.2,0.00,,Overcast,150,2013-02-21 21:11:00
1:56 PM,45.0,37.0,74,30.00,10.0,SSE,18.4,-,0.00,,Overcast,150,2013-02-21 21:56:00
2:27 PM,44.6,37.4,76,29.99,10.0,SSE,12.7,-,0.00,Rain,Light Rain,150,2013-02-21 22:27:00
2:56 PM,44.1,37.0,76,30.01,10.0,SSE,11.5,-,0.00,Rain,Light Rain,150,2013-02-21 22:56:00
3:56 PM,44.1,37.0,76,30.02,10.0,SE,10.4,-,0.00,Rain,Light Rain,140,2013-02-21 23:56:00
4:56 PM,43.0,39.0,86,30.04,10.0,SE,5.8,-,0.00,Rain,Light Rain,140,2013-02-22 00:56:00
5:56 PM,43.0,37.9,82,30.05,10.0,SSE,4.6,-,0.00,,Overcast,160,2013-02-22 01:56:00
6:56 PM,42.1,39.0,89,30.04,10.0,SSE,9.2,-,N/A,,Overcast,160,2013-02-22 02:56:00
7:56 PM,41.0,37.9,89,30.05,10.0,SSE,6.9,-,N/A,,Mostly Cloudy,160,2013-02-22 03:56:00
8:56 PM,41.0,37.9,89,30.06,10.0,ESE,6.9,-,N/A,,Overcast,120,2013-02-22 04:56:00
9:56 PM,41.0,37.0,86,30.06,10.0,ESE,5.8,-,N/A,,Overcast,120,2013-02-22 05:56:00
10:56 PM,41.0,37.9,89,30.04,10.0,SE,8.1,-,N/A,,Mostly Cloudy,130,2013-02-22 06:56:00
11:56 PM,42.1,37.9,85,30.04,10.0,East,3.5,-,N/A,,Overcast,100,2013-02-22 07:56:00